createdAt,value
2019-02-06T00:00:37.400Z,0.00
2019-02-06T00:01:37.402Z,0.00
2019-02-06T00:02:37.408Z,0.00
2019-02-06T00:03:37.377Z,0.00
2019-02-06T00:04:37.384Z,0.00
2019-02-06T00:05:37.386Z,0.00
2019-02-06T00:06:37.330Z,0.00
2019-02-06T00:07:37.350Z,0.00
2019-02-06T00:08:37.347Z,0.00
2019-02-06T00:09:37.300Z,0.00
2019-02-06T00:10:37.308Z,0.00
2019-02-06T00:11:37.279Z,0.00
2019-02-06T00:12:37.280Z,0.00
2019-02-06T00:13:37.280Z,0.00
2019-02-06T00:14:37.383Z,0.00
2019-02-06T00:15:37.249Z,0.00
2019-02-06T00:16:37.251Z,0.00
2019-02-06T00:17:37.220Z,0.00
2019-02-06T00:18:37.226Z,0.00
2019-02-06T00:19:37.198Z,0.00
2019-02-06T00:20:37.209Z,0.00
2019-02-06T00:21:37.177Z,0.00
2019-02-06T00:22:37.162Z,0.00
2019-02-06T00:23:37.147Z,0.00
2019-02-06T00:24:37.142Z,0.00
2019-02-06T00:25:37.134Z,0.00
2019-02-06T00:26:37.161Z,0.00
2019-02-06T00:27:37.153Z,0.00
2019-02-06T00:28:37.093Z,0.00
2019-02-06T00:29:37.086Z,0.00
2019-02-06T00:30:37.093Z,0.00
2019-02-06T00:31:37.062Z,0.00
2019-02-06T00:32:37.099Z,0.00
2019-02-06T00:33:37.041Z,0.00
2019-02-06T00:34:37.030Z,0.00
2019-02-06T00:35:37.027Z,0.00
2019-02-06T00:36:37.022Z,0.00
2019-02-06T00:37:37.022Z,0.00
2019-02-06T00:38:37.080Z,0.00
2019-02-06T00:39:36.983Z,0.00
2019-02-06T00:40:36.993Z,0.00
2019-02-06T00:41:36.959Z,0.00
2019-02-06T00:42:36.974Z,0.00
2019-02-06T00:43:36.940Z,0.00
2019-02-06T00:44:36.975Z,0.00
2019-02-06T00:45:36.928Z,0.00
2019-02-06T00:46:36.903Z,0.00
2019-02-06T00:47:36.893Z,0.00
2019-02-06T00:48:36.883Z,0.00
2019-02-06T00:49:36.869Z,0.00
2019-02-06T00:50:36.951Z,0.00
2019-02-06T00:51:36.864Z,0.00
2019-02-06T00:52:36.856Z,0.00
2019-02-06T00:53:36.833Z,0.00
2019-02-06T00:54:36.827Z,0.00
2019-02-06T00:55:36.821Z,0.00
2019-02-06T00:56:36.833Z,0.00
2019-02-06T00:57:36.812Z,0.00
2019-02-06T00:58:36.827Z,0.00
2019-02-06T00:59:36.768Z,0.00
2019-02-06T01:00:36.759Z,0.00
2019-02-06T01:01:36.763Z,0.00
2019-02-06T01:02:36.773Z,0.00
2019-02-06T01:03:36.743Z,0.00
2019-02-06T01:04:36.716Z,0.00
2019-02-06T01:05:38.721Z,0.00
2019-02-06T01:06:36.708Z,0.00
2019-02-06T01:07:36.699Z,0.00
2019-02-06T01:08:36.823Z,0.00
2019-02-06T01:09:36.654Z,0.00
2019-02-06T01:10:36.647Z,0.00
2019-02-06T01:11:36.645Z,0.00
2019-02-06T01:12:36.646Z,0.00
2019-02-06T01:13:36.618Z,0.00
2019-02-06T01:14:36.641Z,0.00
2019-02-06T01:15:36.600Z,0.00
2019-02-06T01:16:36.589Z,0.00
2019-02-06T01:17:36.581Z,0.00
2019-02-06T01:18:36.559Z,0.00
2019-02-06T01:19:36.568Z,0.00
2019-02-06T01:20:36.582Z,0.00
2019-02-06T01:21:36.532Z,0.00
2019-02-06T01:22:36.528Z,0.00
2019-02-06T01:23:36.522Z,0.00
2019-02-06T01:24:36.501Z,0.00
2019-02-06T01:25:36.518Z,0.00
2019-02-06T01:26:36.506Z,0.00
2019-02-06T01:27:36.474Z,0.00
2019-02-06T01:28:36.455Z,0.00
2019-02-06T01:29:36.460Z,0.00
2019-02-06T01:30:36.447Z,0.00
2019-02-06T01:31:36.427Z,0.00
2019-02-06T01:32:36.503Z,0.00
2019-02-06T01:33:36.403Z,0.00
2019-02-06T01:34:36.391Z,0.00
2019-02-06T01:35:36.381Z,0.00
2019-02-06T01:36:36.381Z,0.00
2019-02-06T01:37:36.418Z,0.00
2019-02-06T01:38:36.444Z,0.00
2019-02-06T01:39:36.347Z,0.00
2019-02-06T01:40:36.345Z,0.00
2019-02-06T01:41:36.320Z,0.00
2019-02-06T01:42:36.318Z,0.00
2019-02-06T01:43:36.302Z,0.00
2019-02-06T01:44:36.335Z,0.00
2019-02-06T01:45:36.277Z,0.00
2019-02-06T01:46:36.290Z,0.00
2019-02-06T01:47:36.285Z,0.00
2019-02-06T01:48:36.253Z,0.00
2019-02-06T01:49:36.238Z,0.00
2019-02-06T01:50:36.409Z,0.00
2019-02-06T01:51:36.221Z,0.00
2019-02-06T01:52:36.198Z,0.00
2019-02-06T01:53:36.201Z,0.00
2019-02-06T01:54:36.198Z,0.00
2019-02-06T01:55:36.187Z,0.00
2019-02-06T01:56:36.262Z,0.00
2019-02-06T01:57:36.147Z,0.00
2019-02-06T01:58:36.143Z,0.00
2019-02-06T01:59:36.133Z,0.00
2019-02-06T02:00:36.128Z,0.00
2019-02-06T02:01:36.106Z,0.00
2019-02-06T02:02:36.131Z,0.00
2019-02-06T02:03:36.091Z,0.00
2019-02-06T02:04:36.075Z,0.00
2019-02-06T02:05:37.975Z,0.00
2019-02-06T02:06:36.066Z,0.00
2019-02-06T02:07:36.040Z,0.00
2019-02-06T02:08:36.073Z,0.00
2019-02-06T02:09:36.036Z,0.00
2019-02-06T02:10:36.026Z,0.00
2019-02-06T02:11:36.001Z,0.00
2019-02-06T02:12:35.998Z,0.00
2019-02-06T02:13:35.979Z,0.00
2019-02-06T02:14:36.135Z,0.00
2019-02-06T02:15:35.983Z,0.00
2019-02-06T02:16:35.948Z,0.00
2019-02-06T02:17:35.958Z,0.00
2019-02-06T02:18:35.938Z,0.00
2019-02-06T02:19:35.918Z,0.00
2019-02-06T02:20:35.985Z,0.00
2019-02-06T02:21:35.907Z,0.00
2019-02-06T02:22:35.895Z,0.00
2019-02-06T02:23:35.883Z,0.00
2019-02-06T02:24:35.868Z,0.00
2019-02-06T02:25:35.857Z,0.00
2019-02-06T02:26:35.879Z,0.00
2019-02-06T02:27:35.916Z,0.00
2019-02-06T02:28:35.827Z,0.00
2019-02-06T02:29:35.808Z,0.00
2019-02-06T02:30:35.806Z,0.00
2019-02-06T02:31:35.788Z,0.00
2019-02-06T02:32:35.828Z,0.00
2019-02-06T02:33:35.768Z,0.00
2019-02-06T02:34:35.760Z,0.00
2019-02-06T02:35:35.784Z,0.00
2019-02-06T02:36:35.760Z,0.00
2019-02-06T02:37:35.823Z,0.00
2019-02-06T02:38:35.743Z,0.00
2019-02-06T02:39:35.709Z,0.00
2019-02-06T02:40:35.709Z,0.00
2019-02-06T02:41:35.681Z,0.00
2019-02-06T02:42:35.681Z,0.00
2019-02-06T02:43:35.660Z,0.00
2019-02-06T02:44:35.688Z,0.00
2019-02-06T02:45:35.650Z,0.00
2019-02-06T02:46:35.632Z,0.00
2019-02-06T02:47:35.620Z,0.00
2019-02-06T02:48:35.601Z,0.00
2019-02-06T02:49:35.589Z,0.00
2019-02-06T02:50:35.780Z,0.00
2019-02-06T02:51:35.591Z,0.00
2019-02-06T02:52:35.579Z,0.00
2019-02-06T02:53:35.571Z,0.00
2019-02-06T02:54:35.559Z,0.00
2019-02-06T02:55:35.539Z,0.00
2019-02-06T02:56:35.567Z,0.00
2019-02-06T02:57:35.533Z,0.00
2019-02-06T02:58:35.507Z,0.00
2019-02-06T02:59:35.496Z,0.00
2019-02-06T03:00:35.489Z,0.00
2019-02-06T03:01:35.481Z,0.00
2019-02-06T03:02:35.646Z,0.00
2019-02-06T03:03:35.473Z,0.00
2019-02-06T03:04:35.439Z,0.00
2019-02-06T03:05:35.436Z,0.00
2019-02-06T03:06:35.433Z,0.00
2019-02-06T03:07:35.430Z,0.00
2019-02-06T03:08:35.471Z,0.00
2019-02-06T03:09:35.386Z,0.00
2019-02-06T03:10:35.385Z,0.00
2019-02-06T03:11:35.377Z,0.00
2019-02-06T03:12:35.365Z,0.00
2019-02-06T03:13:35.340Z,0.00
2019-02-06T03:14:35.396Z,0.00
2019-02-06T03:15:35.317Z,0.00
2019-02-06T03:16:35.309Z,0.00
2019-02-06T03:17:35.301Z,0.00
2019-02-06T03:18:35.294Z,0.00
2019-02-06T03:19:35.274Z,0.00
2019-02-06T03:20:35.426Z,0.00
2019-02-06T03:21:35.260Z,0.00
2019-02-06T03:22:35.263Z,0.00
2019-02-06T03:23:35.246Z,0.00
2019-02-06T03:24:35.232Z,0.00
2019-02-06T03:25:35.220Z,0.00
2019-02-06T03:26:35.296Z,0.00
2019-02-06T03:27:35.234Z,0.00
2019-02-06T03:28:35.190Z,0.00
2019-02-06T03:29:35.179Z,0.00
2019-02-06T03:30:35.176Z,0.00
2019-02-06T03:31:35.155Z,0.00
2019-02-06T03:32:35.202Z,0.00
2019-02-06T03:33:35.160Z,0.00
2019-02-06T03:34:35.136Z,0.00
2019-02-06T03:35:35.113Z,0.00
2019-02-06T03:36:40.453Z,0.00
2019-02-06T03:37:36.162Z,0.00
2019-02-06T03:38:35.079Z,0.00
2019-02-06T03:39:35.070Z,0.00
2019-02-06T03:40:35.054Z,0.00
2019-02-06T03:41:35.042Z,0.00
2019-02-06T03:42:35.027Z,0.00
2019-02-06T03:43:35.069Z,0.00
2019-02-06T03:44:35.144Z,0.00
2019-02-06T03:45:35.001Z,0.00
2019-02-06T03:46:35.007Z,0.00
2019-02-06T03:47:34.986Z,0.00
2019-02-06T03:48:35.002Z,0.00
2019-02-06T03:49:34.997Z,0.00
2019-02-06T03:50:34.954Z,0.00
2019-02-06T03:51:34.963Z,0.00
2019-02-06T03:52:34.934Z,0.00
2019-02-06T03:53:34.927Z,0.00
2019-02-06T03:54:34.916Z,0.00
2019-02-06T03:55:34.959Z,0.00
2019-02-06T03:56:34.902Z,0.00
2019-02-06T03:57:34.876Z,0.00
2019-02-06T03:58:34.866Z,0.00
2019-02-06T03:59:34.855Z,0.00
2019-02-06T04:00:34.880Z,0.00
2019-02-06T04:01:34.882Z,0.00
2019-02-06T04:02:34.842Z,0.00
2019-02-06T04:03:34.810Z,0.00
2019-02-06T04:04:34.797Z,0.00
2019-02-06T04:05:34.826Z,0.00
2019-02-06T04:06:34.789Z,0.00
2019-02-06T04:07:34.812Z,0.00
2019-02-06T04:08:34.763Z,0.00
2019-02-06T04:09:34.743Z,0.00
2019-02-06T04:10:34.738Z,0.00
2019-02-06T04:11:34.758Z,0.00
2019-02-06T04:12:34.713Z,0.00
2019-02-06T04:13:34.899Z,0.00
2019-02-06T04:14:34.702Z,0.00
2019-02-06T04:15:34.681Z,0.00
2019-02-06T04:16:34.677Z,0.00
2019-02-06T04:17:34.663Z,0.00
2019-02-06T04:18:34.654Z,0.00
2019-02-06T04:19:34.671Z,0.00
2019-02-06T04:20:34.628Z,0.00
2019-02-06T04:21:34.612Z,0.00
2019-02-06T04:22:34.634Z,0.00
2019-02-06T04:23:34.593Z,0.00
2019-02-06T04:24:34.587Z,0.00
2019-02-06T04:25:34.615Z,0.00
2019-02-06T04:26:34.589Z,0.00
2019-02-06T04:27:34.586Z,0.00
2019-02-06T04:28:34.554Z,0.00
2019-02-06T04:29:34.611Z,0.00
2019-02-06T04:30:34.517Z,0.00
2019-02-06T04:31:34.802Z,0.00
2019-02-06T04:32:34.509Z,0.00
2019-02-06T04:33:34.485Z,0.00
2019-02-06T04:34:34.482Z,0.00
2019-02-06T04:35:34.473Z,0.00
2019-02-06T04:36:34.467Z,0.00
2019-02-06T04:37:34.623Z,0.00
2019-02-06T04:38:34.430Z,0.00
2019-02-06T04:39:34.427Z,0.00
2019-02-06T04:40:34.408Z,0.00
2019-02-06T04:41:34.398Z,0.00
2019-02-06T04:42:34.488Z,0.00
2019-02-06T04:43:34.404Z,0.00
2019-02-06T04:44:34.385Z,0.00
2019-02-06T04:45:34.366Z,0.00
2019-02-06T04:46:34.344Z,0.00
2019-02-06T04:47:34.348Z,0.00
2019-02-06T04:48:34.322Z,0.00
2019-02-06T04:49:34.364Z,0.00
2019-02-06T04:50:34.301Z,0.00
2019-02-06T04:51:34.296Z,0.00
2019-02-06T04:52:34.291Z,0.00
2019-02-06T04:53:34.283Z,0.00
2019-02-06T04:54:34.290Z,0.00
2019-02-06T04:55:34.338Z,0.00
2019-02-06T04:56:34.277Z,0.00
2019-02-06T04:57:34.247Z,0.00
2019-02-06T04:58:34.226Z,0.00
2019-02-06T04:59:34.219Z,0.00
2019-02-06T05:00:34.197Z,0.00
2019-02-06T05:01:34.230Z,0.00
2019-02-06T05:02:34.186Z,0.00
2019-02-06T05:03:34.165Z,0.00
2019-02-06T05:04:34.152Z,0.00
2019-02-06T05:05:34.155Z,0.00
2019-02-06T05:06:34.135Z,0.00
2019-02-06T05:07:34.179Z,0.00
2019-02-06T05:08:34.111Z,0.00
2019-02-06T05:09:34.102Z,0.00
2019-02-06T05:10:34.113Z,0.00
2019-02-06T05:11:34.077Z,0.00
2019-02-06T05:12:34.071Z,0.00
2019-02-06T05:13:34.093Z,0.00
2019-02-06T05:14:34.054Z,0.00
2019-02-06T05:15:34.038Z,0.00
2019-02-06T05:16:34.034Z,0.00
2019-02-06T05:17:34.016Z,0.00
2019-02-06T05:18:34.007Z,0.00
2019-02-06T05:19:34.031Z,0.00
2019-02-06T05:20:33.985Z,0.00
2019-02-06T05:21:34.006Z,0.00
2019-02-06T05:22:33.973Z,0.00
2019-02-06T05:23:33.952Z,0.00
2019-02-06T05:24:33.944Z,0.00
2019-02-06T05:25:34.075Z,0.00
2019-02-06T05:26:33.938Z,0.00
2019-02-06T05:27:33.915Z,0.00
2019-02-06T05:28:33.914Z,0.00
2019-02-06T05:29:33.889Z,0.00
2019-02-06T05:30:33.881Z,0.00
2019-02-06T05:31:33.895Z,0.00
2019-02-06T05:32:33.913Z,0.00
2019-02-06T05:33:33.845Z,0.00
2019-02-06T05:34:33.849Z,0.00
2019-02-06T05:35:33.824Z,0.00
2019-02-06T05:36:33.812Z,0.00
2019-02-06T05:37:33.846Z,0.00
2019-02-06T05:38:33.795Z,0.00
2019-02-06T05:39:33.794Z,0.00
2019-02-06T05:40:33.781Z,0.00
2019-02-06T05:41:33.764Z,0.00
2019-02-06T05:42:33.752Z,0.00
2019-02-06T05:43:33.787Z,0.00
2019-02-06T05:44:33.733Z,0.00
2019-02-06T05:45:33.720Z,0.00
2019-02-06T05:46:33.715Z,0.00
2019-02-06T05:47:33.742Z,0.00
2019-02-06T05:48:33.685Z,0.00
2019-02-06T05:49:33.710Z,0.00
2019-02-06T05:50:33.664Z,0.00
2019-02-06T05:51:33.653Z,0.00
2019-02-06T05:52:33.653Z,0.00
2019-02-06T05:53:33.690Z,0.00
2019-02-06T05:54:33.628Z,0.00
2019-02-06T05:55:33.662Z,0.00
2019-02-06T05:56:33.613Z,0.00
2019-02-06T05:57:33.596Z,0.00
2019-02-06T05:58:33.590Z,0.00
2019-02-06T05:59:33.567Z,0.00
2019-02-06T06:00:33.559Z,0.00
2019-02-06T06:01:33.604Z,0.00
2019-02-06T06:02:33.537Z,0.00
2019-02-06T06:03:33.528Z,0.00
2019-02-06T06:04:33.524Z,0.00
2019-02-06T06:05:33.503Z,0.00
2019-02-06T06:06:33.495Z,0.00
2019-02-06T06:07:44.797Z,0.00
2019-02-06T06:08:34.484Z,0.00
2019-02-06T06:09:33.646Z,0.00
2019-02-06T06:10:33.487Z,0.00
2019-02-06T06:11:33.459Z,0.00
2019-02-06T06:12:33.436Z,0.00
2019-02-06T06:13:33.478Z,0.00
2019-02-06T06:14:33.412Z,0.00
2019-02-06T06:15:33.401Z,0.00
2019-02-06T06:16:33.402Z,0.00
2019-02-06T06:17:33.387Z,0.00
2019-02-06T06:18:33.380Z,0.00
2019-02-06T06:19:33.421Z,0.00
2019-02-06T06:20:33.351Z,0.00
2019-02-06T06:21:33.335Z,0.00
2019-02-06T06:22:33.334Z,0.00
2019-02-06T06:23:33.313Z,0.00
2019-02-06T06:24:33.311Z,0.00
2019-02-06T06:25:33.322Z,0.00
2019-02-06T06:26:33.288Z,0.00
2019-02-06T06:27:33.270Z,4.00
2019-02-06T06:28:33.270Z,4.00
2019-02-06T06:29:33.249Z,4.00
2019-02-06T06:30:33.243Z,0.00
2019-02-06T06:31:33.270Z,4.00
2019-02-06T06:32:33.222Z,4.00
2019-02-06T06:33:33.208Z,4.00
2019-02-06T06:34:33.207Z,4.00
2019-02-06T06:35:33.205Z,4.00
2019-02-06T06:36:33.177Z,8.00
2019-02-06T06:37:33.229Z,8.00
2019-02-06T06:38:33.164Z,12.00
2019-02-06T06:39:33.144Z,12.00
2019-02-06T06:40:33.139Z,16.00
2019-02-06T06:41:33.140Z,20.00
2019-02-06T06:42:33.127Z,24.00
2019-02-06T06:43:33.153Z,28.00
2019-02-06T06:44:33.093Z,36.00
2019-02-06T06:45:33.228Z,40.00
2019-02-06T06:46:33.119Z,48.00
2019-02-06T06:47:33.072Z,56.00
2019-02-06T06:48:33.047Z,68.00
2019-02-06T06:49:33.097Z,80.00
2019-02-06T06:50:33.029Z,88.00
2019-02-06T06:51:33.058Z,100.00
2019-02-06T06:52:33.008Z,108.00
2019-02-06T06:53:32.995Z,120.00
2019-02-06T06:54:32.992Z,136.00
2019-02-06T06:55:35.278Z,152.00
2019-02-06T06:56:32.977Z,164.00
2019-02-06T06:57:33.037Z,176.00
2019-02-06T06:58:33.009Z,196.00
2019-02-06T06:59:32.936Z,216.00
2019-02-06T07:00:33.001Z,236.00
2019-02-06T07:01:32.964Z,256.00
2019-02-06T07:02:32.957Z,280.00
2019-02-06T07:03:32.898Z,300.00
2019-02-06T07:04:32.944Z,328.00
2019-02-06T07:05:32.895Z,352.00
2019-02-06T07:06:32.862Z,380.00
2019-02-06T07:07:32.912Z,412.00
2019-02-06T07:08:32.866Z,444.00
2019-02-06T07:09:32.924Z,480.00
2019-02-06T07:10:32.821Z,524.00
2019-02-06T07:11:32.804Z,568.00
2019-02-06T07:12:32.792Z,616.00
2019-02-06T07:13:32.906Z,664.00
2019-02-06T07:14:33.105Z,716.00
2019-02-06T07:15:32.761Z,776.00
2019-02-06T07:16:32.754Z,836.00
2019-02-06T07:17:32.740Z,900.00
2019-02-06T07:18:32.745Z,964.00
2019-02-06T07:19:32.767Z,1032.00
2019-02-06T07:20:32.708Z,1104.00
2019-02-06T07:21:32.696Z,1172.00
2019-02-06T07:22:32.691Z,1244.00
2019-02-06T07:23:32.735Z,1320.00
2019-02-06T07:24:32.667Z,1388.00
2019-02-06T07:25:32.687Z,1460.00
2019-02-06T07:26:32.666Z,1528.00
2019-02-06T07:27:32.632Z,1600.00
2019-02-06T07:28:32.626Z,1668.00
2019-02-06T07:29:32.697Z,1736.00
2019-02-06T07:30:32.603Z,1804.00
2019-02-06T07:31:32.633Z,1872.00
2019-02-06T07:32:32.591Z,1940.00
2019-02-06T07:33:32.581Z,2008.00
2019-02-06T07:34:32.560Z,2076.00
2019-02-06T07:35:32.550Z,2152.00
2019-02-06T07:36:32.540Z,2232.00
2019-02-06T07:37:32.560Z,2312.00
2019-02-06T07:38:32.519Z,2400.00
2019-02-06T07:39:32.510Z,2496.00
2019-02-06T07:40:32.495Z,2596.00
2019-02-06T07:41:32.497Z,2700.00
2019-02-06T07:42:32.493Z,2808.00
2019-02-06T07:43:32.504Z,2908.00
2019-02-06T07:44:32.454Z,3004.00
2019-02-06T07:45:32.446Z,3096.00
2019-02-06T07:46:32.438Z,3184.00
2019-02-06T07:47:32.426Z,3276.00
2019-02-06T07:48:32.411Z,3356.00
2019-02-06T07:49:32.461Z,3432.00
2019-02-06T07:50:32.418Z,3500.00
2019-02-06T07:51:32.378Z,3556.00
2019-02-06T07:52:32.376Z,3632.00
2019-02-06T07:53:32.371Z,3696.00
2019-02-06T07:54:32.372Z,3756.00
2019-02-06T07:55:32.392Z,3796.00
2019-02-06T07:56:32.379Z,3824.00
2019-02-06T07:57:32.320Z,3864.00
2019-02-06T07:58:32.306Z,3916.00
2019-02-06T07:59:32.306Z,3976.00
2019-02-06T08:00:32.283Z,4032.00
2019-02-06T08:01:32.311Z,4100.00
2019-02-06T08:02:32.262Z,4168.00
2019-02-06T08:03:32.252Z,4240.00
2019-02-06T08:04:32.248Z,4328.00
2019-02-06T08:05:32.239Z,4404.00
2019-02-06T08:06:32.228Z,4472.00
2019-02-06T08:07:32.252Z,4540.00
2019-02-06T08:08:36.291Z,4620.00
2019-02-06T08:09:32.186Z,4700.00
2019-02-06T08:10:32.193Z,4740.00
2019-02-06T08:11:32.170Z,4740.00
2019-02-06T08:12:32.155Z,4760.00
2019-02-06T08:13:32.204Z,4772.00
2019-02-06T08:14:32.133Z,4772.00
2019-02-06T08:15:32.132Z,4820.00
2019-02-06T08:16:32.122Z,4888.00
2019-02-06T08:17:32.120Z,4956.00
2019-02-06T08:18:32.090Z,5028.00
2019-02-06T08:19:32.123Z,5108.00
2019-02-06T08:20:32.150Z,5184.00
2019-02-06T08:21:32.142Z,5248.00
2019-02-06T08:22:32.156Z,5308.00
2019-02-06T08:23:32.166Z,5356.00
2019-02-06T08:24:32.024Z,5424.00
2019-02-06T08:25:32.067Z,5516.00
2019-02-06T08:26:32.004Z,5592.00
2019-02-06T08:27:31.993Z,5684.00
2019-02-06T08:28:31.986Z,5780.00
2019-02-06T08:29:31.976Z,5884.00
2019-02-06T08:30:31.978Z,6000.00
2019-02-06T08:31:32.017Z,6108.00
2019-02-06T08:32:31.939Z,6232.00
2019-02-06T08:33:31.931Z,6348.00
2019-02-06T08:34:31.920Z,6460.00
2019-02-06T08:35:31.933Z,6576.00
2019-02-06T08:36:31.939Z,6688.00
2019-02-06T08:37:31.913Z,6796.00
2019-02-06T08:38:31.902Z,6896.00
2019-02-06T08:39:31.873Z,6984.00
2019-02-06T08:40:31.870Z,7076.00
2019-02-06T08:41:31.840Z,7140.00
2019-02-06T08:42:31.835Z,7208.00
2019-02-06T08:43:31.882Z,7272.00
2019-02-06T08:44:31.811Z,7336.00
2019-02-06T08:45:31.799Z,7396.00
2019-02-06T08:46:31.791Z,7464.00
2019-02-06T08:47:31.775Z,7524.00
2019-02-06T08:48:31.779Z,7584.00
2019-02-06T08:49:31.806Z,7648.00
2019-02-06T08:50:31.802Z,7700.00
2019-02-06T08:51:31.734Z,7764.00
2019-02-06T08:52:31.723Z,7816.00
2019-02-06T08:53:31.713Z,7864.00
2019-02-06T08:54:31.711Z,7908.00
2019-02-06T08:55:31.719Z,7952.00
2019-02-06T08:56:31.681Z,7988.00
2019-02-06T08:57:31.667Z,8020.00
2019-02-06T08:58:31.656Z,8048.00
2019-02-06T08:59:31.688Z,8084.00
2019-02-06T09:00:31.657Z,8120.00
2019-02-06T09:01:31.673Z,8168.00
2019-02-06T09:02:31.617Z,8200.00
2019-02-06T09:03:31.602Z,8236.00
2019-02-06T09:04:31.591Z,8272.00
2019-02-06T09:05:31.580Z,8312.00
2019-02-06T09:06:31.584Z,8352.00
2019-02-06T09:07:31.767Z,8400.00
2019-02-06T09:08:31.550Z,8440.00
2019-02-06T09:09:31.649Z,8484.00
2019-02-06T09:10:31.527Z,8524.00
2019-02-06T09:11:31.519Z,8560.00
2019-02-06T09:12:31.517Z,8604.00
2019-02-06T09:13:31.522Z,8644.00
2019-02-06T09:14:31.486Z,8676.00
2019-02-06T09:15:31.474Z,8692.00
2019-02-06T09:16:31.473Z,8708.00
2019-02-06T09:17:31.450Z,8708.00
2019-02-06T09:18:31.443Z,8696.00
2019-02-06T09:19:31.576Z,8688.00
2019-02-06T09:20:31.429Z,8676.00
2019-02-06T09:21:31.422Z,8668.00
2019-02-06T09:22:31.408Z,8664.00
2019-02-06T09:23:31.385Z,8664.00
2019-02-06T09:24:31.505Z,8656.00
2019-02-06T09:25:31.402Z,8644.00
2019-02-06T09:26:35.457Z,8624.00
2019-02-06T09:27:31.382Z,8576.00
2019-02-06T09:28:31.344Z,8540.00
2019-02-06T09:29:31.321Z,8532.00
2019-02-06T09:30:31.309Z,8524.00
2019-02-06T09:31:31.348Z,8508.00
2019-02-06T09:32:31.289Z,8456.00
2019-02-06T09:33:31.284Z,8432.00
2019-02-06T09:34:31.266Z,8368.00
2019-02-06T09:35:31.260Z,8296.00
2019-02-06T09:36:31.249Z,8224.00
2019-02-06T09:37:31.292Z,8140.00
2019-02-06T09:38:31.245Z,8112.00
2019-02-06T09:39:31.214Z,8088.00
2019-02-06T09:40:31.221Z,8080.00
2019-02-06T09:41:31.268Z,8084.00
2019-02-06T09:42:31.216Z,8144.00
2019-02-06T09:43:31.229Z,8200.00
2019-02-06T09:44:31.160Z,8216.00
2019-02-06T09:45:31.160Z,8264.00
2019-02-06T09:46:31.156Z,8556.00
2019-02-06T09:47:31.146Z,8784.00
2019-02-06T09:48:31.131Z,8968.00
2019-02-06T09:49:31.158Z,9124.00
2019-02-06T09:50:31.115Z,9360.00
2019-02-06T09:51:31.092Z,9276.00
2019-02-06T09:52:31.083Z,9440.00
2019-02-06T09:53:31.082Z,9540.00
2019-02-06T09:54:31.051Z,9688.00
2019-02-06T09:55:31.125Z,9868.00
2019-02-06T09:56:31.034Z,9984.00
2019-02-06T09:57:31.017Z,10160.00
2019-02-06T09:58:31.035Z,10480.00
2019-02-06T09:59:30.996Z,10644.00
2019-02-06T10:00:30.986Z,10784.00
2019-02-06T10:01:31.006Z,11112.00
2019-02-06T10:02:30.968Z,11204.00
2019-02-06T10:03:30.966Z,11112.00
2019-02-06T10:04:30.942Z,11024.00
2019-02-06T10:05:30.932Z,11092.00
2019-02-06T10:06:30.920Z,11156.00
2019-02-06T10:07:30.940Z,11508.00
2019-02-06T10:08:30.900Z,11608.00
2019-02-06T10:09:30.902Z,11856.00
2019-02-06T10:10:30.875Z,12032.00
2019-02-06T10:11:30.869Z,12132.00
2019-02-06T10:12:30.866Z,12376.00
2019-02-06T10:13:30.894Z,12776.00
2019-02-06T10:14:30.832Z,12808.00
2019-02-06T10:15:30.838Z,12516.00
2019-02-06T10:16:30.816Z,12688.00
2019-02-06T10:17:30.801Z,12892.00
2019-02-06T10:18:30.791Z,12868.00
2019-02-06T10:19:30.822Z,12892.00
2019-02-06T10:20:30.767Z,12924.00
2019-02-06T10:21:30.769Z,13232.00
2019-02-06T10:22:30.768Z,13204.00
2019-02-06T10:23:30.735Z,12800.00
2019-02-06T10:24:30.722Z,13108.00
2019-02-06T10:25:30.751Z,13156.00
2019-02-06T10:26:30.776Z,13196.00
2019-02-06T10:27:30.694Z,13176.00
2019-02-06T10:28:30.698Z,13156.00
2019-02-06T10:29:30.670Z,13380.00
2019-02-06T10:30:30.664Z,13284.00
2019-02-06T10:31:32.859Z,13292.00
2019-02-06T10:32:30.637Z,12988.00
2019-02-06T10:33:30.624Z,13092.00
2019-02-06T10:34:30.633Z,13264.00
2019-02-06T10:35:30.610Z,13464.00
2019-02-06T10:36:30.591Z,13472.00
2019-02-06T10:37:30.629Z,13348.00
2019-02-06T10:38:30.569Z,13320.00
2019-02-06T10:39:34.678Z,13656.00
2019-02-06T10:40:30.559Z,13952.00
2019-02-06T10:41:30.536Z,14200.00
2019-02-06T10:42:30.525Z,14252.00
2019-02-06T10:43:32.788Z,14452.00
2019-02-06T10:44:31.502Z,14804.00
2019-02-06T10:45:30.493Z,15048.00
2019-02-06T10:46:30.492Z,15192.00
2019-02-06T10:47:30.474Z,15164.00
2019-02-06T10:48:30.463Z,15216.00
2019-02-06T10:49:30.499Z,15268.00
2019-02-06T10:50:30.460Z,15276.00
2019-02-06T10:51:30.459Z,15184.00
2019-02-06T10:52:30.457Z,14760.00
2019-02-06T10:53:30.405Z,15340.00
2019-02-06T10:54:30.397Z,15508.00
2019-02-06T10:55:30.539Z,15356.00
2019-02-06T10:56:30.373Z,15408.00
2019-02-06T10:57:30.366Z,15332.00
2019-02-06T10:58:30.385Z,15180.00
2019-02-06T10:59:30.341Z,15140.00
2019-02-06T11:00:30.337Z,15148.00
2019-02-06T11:01:30.356Z,15028.00
2019-02-06T11:02:30.317Z,14928.00
2019-02-06T11:03:30.306Z,14980.00
2019-02-06T11:04:30.366Z,14996.00
2019-02-06T11:05:30.279Z,15012.00
2019-02-06T11:06:30.263Z,15116.00
2019-02-06T11:07:30.457Z,15156.00
2019-02-06T11:08:30.254Z,15180.00
2019-02-06T11:09:30.234Z,15212.00
2019-02-06T11:10:30.252Z,15312.00
2019-02-06T11:11:30.216Z,15456.00
2019-02-06T11:12:30.208Z,15540.00
2019-02-06T11:13:30.260Z,15612.00
2019-02-06T11:14:30.184Z,15688.00
2019-02-06T11:15:30.203Z,15780.00
2019-02-06T11:16:30.163Z,15852.00
2019-02-06T11:17:30.177Z,15976.00
2019-02-06T11:18:30.141Z,16116.00
2019-02-06T11:19:30.175Z,16236.00
2019-02-06T11:20:30.126Z,16396.00
2019-02-06T11:21:30.111Z,16512.00
2019-02-06T11:22:30.088Z,16556.00
2019-02-06T11:23:30.126Z,16608.00
2019-02-06T11:24:30.070Z,16660.00
2019-02-06T11:25:30.096Z,16672.00
2019-02-06T11:26:30.048Z,16688.00
2019-02-06T11:27:30.038Z,16652.00
2019-02-06T11:28:30.030Z,16652.00
2019-02-06T11:29:30.033Z,16684.00
2019-02-06T11:30:30.002Z,16668.00
2019-02-06T11:31:30.258Z,16676.00
2019-02-06T11:32:29.992Z,16568.00
2019-02-06T11:33:29.970Z,16560.00
2019-02-06T11:34:29.962Z,16368.00
2019-02-06T11:35:29.965Z,16192.00
2019-02-06T11:36:29.943Z,16192.00
2019-02-06T11:37:29.957Z,15972.00
2019-02-06T11:38:29.921Z,15712.00
2019-02-06T11:39:29.916Z,15460.00
2019-02-06T11:40:29.905Z,15308.00
2019-02-06T11:41:29.916Z,15384.00
2019-02-06T11:42:29.878Z,15176.00
2019-02-06T11:43:32.041Z,15000.00
2019-02-06T11:44:29.853Z,15020.00
2019-02-06T11:45:29.843Z,14876.00
2019-02-06T11:46:29.834Z,14588.00
2019-02-06T11:47:29.848Z,14412.00
2019-02-06T11:48:29.812Z,14128.00
2019-02-06T11:49:29.836Z,14096.00
2019-02-06T11:50:29.788Z,13924.00
2019-02-06T11:51:29.781Z,13764.00
2019-02-06T11:52:29.764Z,13588.00
2019-02-06T11:53:29.786Z,13472.00
2019-02-06T11:54:29.743Z,13580.00
2019-02-06T11:55:29.783Z,13684.00
2019-02-06T11:56:29.725Z,13616.00
2019-02-06T11:57:29.715Z,13500.00
2019-02-06T11:58:29.704Z,13292.00
2019-02-06T11:59:29.707Z,13088.00
2019-02-06T12:00:29.678Z,12956.00
2019-02-06T12:01:29.720Z,12836.00
2019-02-06T12:02:37.051Z,12712.00
2019-02-06T12:03:30.651Z,12664.00
2019-02-06T12:04:29.651Z,12556.00
2019-02-06T12:05:29.661Z,12636.00
2019-02-06T12:06:29.620Z,12392.00
2019-02-06T12:07:29.632Z,12540.00
2019-02-06T12:08:31.197Z,12640.00
2019-02-06T12:09:29.590Z,13856.00
2019-02-06T12:10:29.573Z,15184.00
2019-02-06T12:11:29.577Z,15300.00
2019-02-06T12:12:29.548Z,15152.00
2019-02-06T12:13:29.572Z,14636.00
2019-02-06T12:14:29.528Z,14260.00
2019-02-06T12:15:29.523Z,14088.00
2019-02-06T12:16:29.723Z,14048.00
2019-02-06T12:17:29.510Z,14164.00
2019-02-06T12:18:29.485Z,13932.00
2019-02-06T12:19:29.538Z,14232.00
2019-02-06T12:20:29.465Z,13992.00
2019-02-06T12:21:29.462Z,14628.00
2019-02-06T12:22:29.443Z,14520.00
2019-02-06T12:23:32.193Z,14012.00
2019-02-06T12:24:29.418Z,13884.00
2019-02-06T12:25:29.457Z,14268.00
2019-02-06T12:26:29.398Z,14732.00
2019-02-06T12:27:29.392Z,15248.00
2019-02-06T12:28:29.378Z,15652.00
2019-02-06T12:29:29.438Z,15604.00
2019-02-06T12:30:29.354Z,15184.00
2019-02-06T12:31:29.387Z,14332.00
2019-02-06T12:32:29.333Z,13316.00
2019-02-06T12:33:29.324Z,12836.00
2019-02-06T12:34:29.312Z,12632.00
2019-02-06T12:35:29.373Z,12324.00
2019-02-06T12:36:29.303Z,12052.00
2019-02-06T12:37:29.324Z,11748.00
2019-02-06T12:38:29.277Z,10856.00